Pagrindinis puslapis
METAR-TAF:

METAR-TAF

Oro uostai :

Rodrigesas, Mauricijus

platuma: 19-41S, ilguma: 063-25E, Aukštis: 58 m

Dabartinis oras

Ataskaita buvo paskelbta 1 valandą ir 2 minutes, ne 15:00 UTC
Vėjas 11 kt iš Rytų
Temperatūra 23°C
Drėgmė 83%
Slėgis 1019 hPa
Matomumas 10 km arba daugiau
Išsisklaidę debesys ne aukštis 1800 ft

METAR: FIMR 281500Z 09011KT 9999 SCT018 23/20 Q1019

Laikas: 20:02 (16:02 UTC)

Prognozė

Ataskaita buvo paskelbta 4 valandos ir 52 minutes, ne 11:10 UTC
Prognozė galioja nuo 28 metu 12 UTC su 29 metu 06 UTC
Vėjas 18 kt iš Rytų su gūsio iki 28 kt
Matomumas 10 km arba daugiau
Išsisklaidę debesys ne aukštis 1800 ft

TAF: FIMR 281110Z 2812/2906 09018G28KT 9999 SCT018

Orai ataskaitas ir orų prognozės (METAR, TAF).

turimą stotys yra geltonos ir raudonos taškus žemėlapyje.

Perkelti pele per norėdami pamatyti stoties vardą.

Tada spustelėkite, norėdami matyti oro stebėjimo ir prognozės.

Norėdami pakeisti žemėlapį: spustelėkite ant žalios mygtukų su juodo kryžiaus žemyn,; žalią mygtuką su brūkšneliu, jei norite nutolinti; arba žalių rodyklių gretimoms žemėlapius.


METAR-TAF: